sensor_id;sensor_type;location;lat;lon;timestamp;pressure;altitude;pressure_sealevel;temperature;humidity
66742;BME280;53654;54.152;19.432;2023-02-12T00:01:25;103031.20;;;3.76;64.19
66742;BME280;53654;54.152;19.432;2023-02-12T00:03:56;103035.90;;;3.67;64.28
66742;BME280;53654;54.152;19.432;2023-02-12T00:06:25;103033.70;;;3.62;64.43
66742;BME280;53654;54.152;19.432;2023-02-12T00:08:54;103038.41;;;3.63;64.42
66742;BME280;53654;54.152;19.432;2023-02-12T00:11:26;103046.61;;;3.61;64.04
66742;BME280;53654;54.152;19.432;2023-02-12T00:13:55;103053.85;;;3.58;64.05
66742;BME280;53654;54.152;19.432;2023-02-12T00:16:25;103053.44;;;3.50;64.28
66742;BME280;53654;54.152;19.432;2023-02-12T00:18:55;103051.36;;;3.44;64.68
66742;BME280;53654;54.152;19.432;2023-02-12T00:21:24;103060.98;;;3.38;64.77
66742;BME280;53654;54.152;19.432;2023-02-12T00:23:52;103064.66;;;3.33;64.89
66742;BME280;53654;54.152;19.432;2023-02-12T00:26:22;103063.48;;;3.33;64.70
66742;BME280;53654;54.152;19.432;2023-02-12T00:28:51;103058.59;;;3.35;64.29
66742;BME280;53654;54.152;19.432;2023-02-12T00:31:22;103059.00;;;3.39;64.38
66742;BME280;53654;54.152;19.432;2023-02-12T00:33:51;103058.70;;;3.40;64.43
66742;BME280;53654;54.152;19.432;2023-02-12T00:36:22;103054.55;;;3.40;64.19
66742;BME280;53654;54.152;19.432;2023-02-12T00:38:52;103057.27;;;3.39;64.14
66742;BME280;53654;54.152;19.432;2023-02-12T00:41:21;103064.75;;;3.37;64.61
66742;BME280;53654;54.152;19.432;2023-02-12T00:43:50;103069.55;;;3.37;64.97
66742;BME280;53654;54.152;19.432;2023-02-12T00:46:18;103073.58;;;3.35;64.88
66742;BME280;53654;54.152;19.432;2023-02-12T00:48:46;103077.14;;;3.31;64.68
66742;BME280;53654;54.152;19.432;2023-02-12T00:51:14;103084.94;;;3.26;65.11
66742;BME280;53654;54.152;19.432;2023-02-12T00:53:42;103090.45;;;3.19;65.59
66742;BME280;53654;54.152;19.432;2023-02-12T00:56:10;103095.70;;;3.12;65.68
66742;BME280;53654;54.152;19.432;2023-02-12T00:58:38;103102.20;;;3.05;66.06
66742;BME280;53654;54.152;19.432;2023-02-12T01:01:06;103105.90;;;2.98;66.27
66742;BME280;53654;54.152;19.432;2023-02-12T01:03:36;103115.13;;;2.91;66.47
66742;BME280;53654;54.152;19.432;2023-02-12T01:06:05;103120.03;;;2.83;66.42
66742;BME280;53654;54.152;19.432;2023-02-12T01:08:34;103125.70;;;2.78;66.64
66742;BME280;53654;54.152;19.432;2023-02-12T01:11:03;103125.80;;;2.71;66.90
66742;BME280;53654;54.152;19.432;2023-02-12T01:13:33;103138.42;;;2.63;66.84
66742;BME280;53654;54.152;19.432;2023-02-12T01:16:04;103145.52;;;2.55;67.20
66742;BME280;53654;54.152;19.432;2023-02-12T01:18:35;103147.42;;;2.47;67.60
66742;BME280;53654;54.152;19.432;2023-02-12T01:21:11;103147.04;;;2.39;67.92
66742;BME280;53654;54.152;19.432;2023-02-12T01:23:41;103150.99;;;2.30;68.51
66742;BME280;53654;54.152;19.432;2023-02-12T01:26:13;103162.90;;;2.25;68.83
66742;BME280;53654;54.152;19.432;2023-02-12T01:28:43;103167.52;;;2.19;69.13
66742;BME280;53654;54.152;19.432;2023-02-12T01:31:15;103173.79;;;2.15;69.41
66742;BME280;53654;54.152;19.432;2023-02-12T01:33:47;103175.27;;;2.09;69.27
66742;BME280;53654;54.152;19.432;2023-02-12T01:36:15;103185.35;;;2.02;69.23
66742;BME280;53654;54.152;19.432;2023-02-12T01:38:44;103192.27;;;1.97;69.65
66742;BME280;53654;54.152;19.432;2023-02-12T01:41:15;103193.48;;;1.92;69.86
66742;BME280;53654;54.152;19.432;2023-02-12T01:44:05;103194.56;;;1.88;69.81
66742;BME280;53654;54.152;19.432;2023-02-12T01:46:33;103203.52;;;1.80;70.18
66742;BME280;53654;54.152;19.432;2023-02-12T01:49:02;103206.11;;;1.78;70.35
66742;BME280;53654;54.152;19.432;2023-02-12T01:51:32;103207.10;;;1.75;70.56
66742;BME280;53654;54.152;19.432;2023-02-12T01:54:04;103212.85;;;1.73;70.67
66742;BME280;53654;54.152;19.432;2023-02-12T01:56:34;103213.08;;;1.71;70.78
66742;BME280;53654;54.152;19.432;2023-02-12T01:59:03;103212.17;;;1.68;70.92
66742;BME280;53654;54.152;19.432;2023-02-12T02:01:32;103212.08;;;1.64;71.06
66742;BME280;53654;54.152;19.432;2023-02-12T02:04:07;103214.36;;;1.62;70.99
66742;BME280;53654;54.152;19.432;2023-02-12T02:06:57;103221.73;;;1.61;70.99
66742;BME280;53654;54.152;19.432;2023-02-12T02:09:27;103224.99;;;1.59;70.96
66742;BME280;53654;54.152;19.432;2023-02-12T02:11:56;103225.17;;;1.59;70.86
66742;BME280;53654;54.152;19.432;2023-02-12T02:14:44;103225.86;;;1.54;71.11
66742;BME280;53654;54.152;19.432;2023-02-12T02:27:19;103223.15;;;1.40;71.02
66742;BME280;53654;54.152;19.432;2023-02-12T02:38:05;103226.86;;;1.46;71.05
66742;BME280;53654;54.152;19.432;2023-02-12T02:41:01;103229.28;;;1.48;70.85
66742;BME280;53654;54.152;19.432;2023-02-12T02:43:37;103233.36;;;1.50;70.55
66742;BME280;53654;54.152;19.432;2023-02-12T02:46:13;103235.60;;;1.53;70.72
66742;BME280;53654;54.152;19.432;2023-02-12T02:48:47;103236.40;;;1.54;70.42
66742;BME280;53654;54.152;19.432;2023-02-12T02:51:25;103236.14;;;1.56;70.11
66742;BME280;53654;54.152;19.432;2023-02-12T02:54:05;103235.52;;;1.54;70.28
66742;BME280;53654;54.152;19.432;2023-02-12T02:56:37;103230.66;;;1.53;70.34
66742;BME280;53654;54.152;19.432;2023-02-12T02:59:10;103234.09;;;1.53;70.22
66742;BME280;53654;54.152;19.432;2023-02-12T03:01:46;103245.02;;;1.52;70.56
66742;BME280;53654;54.152;19.432;2023-02-12T03:04:40;103246.92;;;1.50;70.50
66742;BME280;53654;54.152;19.432;2023-02-12T03:07:13;103247.66;;;1.43;70.63
66742;BME280;53654;54.152;19.432;2023-02-12T03:09:48;103248.90;;;1.41;70.97
66742;BME280;53654;54.152;19.432;2023-02-12T03:12:24;103245.92;;;1.40;71.01
66742;BME280;53654;54.152;19.432;2023-02-12T03:15:07;103256.47;;;1.39;70.71
66742;BME280;53654;54.152;19.432;2023-02-12T03:17:41;103258.64;;;1.38;70.62
66742;BME280;53654;54.152;19.432;2023-02-12T03:20:32;103259.67;;;1.35;70.62
66742;BME280;53654;54.152;19.432;2023-02-12T03:23:11;103263.69;;;1.31;70.64
66742;BME280;53654;54.152;19.432;2023-02-12T03:26:05;103270.60;;;1.29;70.69
66742;BME280;53654;54.152;19.432;2023-02-12T03:28:37;103275.95;;;1.25;70.94
66742;BME280;53654;54.152;19.432;2023-02-12T03:33:42;103277.20;;;1.23;71.26
66742;BME280;53654;54.152;19.432;2023-02-12T03:36:18;103281.48;;;1.20;71.09
66742;BME280;53654;54.152;19.432;2023-02-12T03:38:53;103286.48;;;1.16;71.27
66742;BME280;53654;54.152;19.432;2023-02-12T03:41:30;103286.11;;;1.13;71.31
66742;BME280;53654;54.152;19.432;2023-02-12T03:52:29;103313.19;;;0.92;71.67
66742;BME280;53654;54.152;19.432;2023-02-12T03:54:57;103318.84;;;0.91;71.99
66742;BME280;53654;54.152;19.432;2023-02-12T03:57:29;103323.81;;;0.91;71.81
66742;BME280;53654;54.152;19.432;2023-02-12T04:00:02;103322.38;;;0.88;71.78
66742;BME280;53654;54.152;19.432;2023-02-12T04:02:41;103321.24;;;0.87;71.98
66742;BME280;53654;54.152;19.432;2023-02-12T04:05:20;103325.52;;;0.89;71.60
66742;BME280;53654;54.152;19.432;2023-02-12T04:07:50;103336.60;;;0.88;71.49
66742;BME280;53654;54.152;19.432;2023-02-12T04:10:52;103339.65;;;0.87;71.49
66742;BME280;53654;54.152;19.432;2023-02-12T04:14:12;103339.59;;;0.81;71.62
66742;BME280;53654;54.152;19.432;2023-02-12T04:19:39;103341.77;;;0.74;71.80
66742;BME280;53654;54.152;19.432;2023-02-12T04:31:02;103354.45;;;0.61;72.29
66742;BME280;53654;54.152;19.432;2023-02-12T04:33:43;103356.16;;;0.59;72.37
66742;BME280;53654;54.152;19.432;2023-02-12T04:36:16;103359.38;;;0.54;72.43
66742;BME280;53654;54.152;19.432;2023-02-12T04:38:53;103358.25;;;0.50;72.48
66742;BME280;53654;54.152;19.432;2023-02-12T04:41:24;103355.18;;;0.48;72.55
66742;BME280;53654;54.152;19.432;2023-02-12T04:43:52;103353.60;;;0.48;72.44
66742;BME280;53654;54.152;19.432;2023-02-12T04:46:20;103357.75;;;0.48;72.71
66742;BME280;53654;54.152;19.432;2023-02-12T04:48:52;103356.52;;;0.48;72.75
66742;BME280;53654;54.152;19.432;2023-02-12T04:51:20;103361.69;;;0.48;72.92
66742;BME280;53654;54.152;19.432;2023-02-12T04:53:49;103372.14;;;0.48;72.77
66742;BME280;53654;54.152;19.432;2023-02-12T04:56:17;103370.91;;;0.47;72.79
66742;BME280;53654;54.152;19.432;2023-02-12T04:58:45;103369.26;;;0.46;72.57
66742;BME280;53654;54.152;19.432;2023-02-12T05:01:13;103374.54;;;0.45;72.69
66742;BME280;53654;54.152;19.432;2023-02-12T05:03:41;103374.88;;;0.43;72.86
66742;BME280;53654;54.152;19.432;2023-02-12T05:06:09;103379.58;;;0.42;72.85
66742;BME280;53654;54.152;19.432;2023-02-12T05:08:37;103376.17;;;0.40;72.84
66742;BME280;53654;54.152;19.432;2023-02-12T05:11:07;103376.41;;;0.36;72.66
66742;BME280;53654;54.152;19.432;2023-02-12T05:13:36;103381.27;;;0.34;72.82
66742;BME280;53654;54.152;19.432;2023-02-12T05:16:06;103383.05;;;0.33;72.90
66742;BME280;53654;54.152;19.432;2023-02-12T05:18:35;103387.10;;;0.29;72.67
66742;BME280;53654;54.152;19.432;2023-02-12T05:21:04;103389.47;;;0.26;72.63
66742;BME280;53654;54.152;19.432;2023-02-12T05:23:34;103393.23;;;0.24;72.85
66742;BME280;53654;54.152;19.432;2023-02-12T05:26:09;103387.14;;;0.23;72.89
66742;BME280;53654;54.152;19.432;2023-02-12T05:28:39;103390.41;;;0.21;73.16
66742;BME280;53654;54.152;19.432;2023-02-12T05:31:09;103393.60;;;0.20;73.30
66742;BME280;53654;54.152;19.432;2023-02-12T05:33:45;103397.70;;;0.20;73.54
66742;BME280;53654;54.152;19.432;2023-02-12T05:36:17;103402.11;;;0.17;73.47
66742;BME280;53654;54.152;19.432;2023-02-12T05:38:47;103411.20;;;0.12;73.15
66742;BME280;53654;54.152;19.432;2023-02-12T05:41:18;103414.23;;;0.07;73.33
66742;BME280;53654;54.152;19.432;2023-02-12T05:43:47;103413.85;;;0.02;73.39
66742;BME280;53654;54.152;19.432;2023-02-12T05:46:18;103409.79;;;0.03;73.80
66742;BME280;53654;54.152;19.432;2023-02-12T05:48:46;103410.71;;;0.06;74.19
66742;BME280;53654;54.152;19.432;2023-02-12T05:51:18;103418.35;;;0.07;73.94
66742;BME280;53654;54.152;19.432;2023-02-12T05:53:51;103416.92;;;0.04;73.90
66742;BME280;53654;54.152;19.432;2023-02-12T05:56:25;103416.96;;;0.00;73.89
66742;BME280;53654;54.152;19.432;2023-02-12T05:58:59;103417.77;;;-0.04;73.88
66742;BME280;53654;54.152;19.432;2023-02-12T06:01:34;103418.13;;;-0.06;74.08
66742;BME280;53654;54.152;19.432;2023-02-12T06:04:05;103411.52;;;-0.08;74.04
66742;BME280;53654;54.152;19.432;2023-02-12T06:06:34;103412.64;;;-0.09;73.82
66742;BME280;53654;54.152;19.432;2023-02-12T06:09:02;103416.89;;;-0.09;73.84
66742;BME280;53654;54.152;19.432;2023-02-12T06:11:30;103418.73;;;-0.10;73.88
66742;BME280;53654;54.152;19.432;2023-02-12T06:14:01;103421.45;;;-0.10;74.01
66742;BME280;53654;54.152;19.432;2023-02-12T06:16:30;103428.52;;;-0.10;74.06
66742;BME280;53654;54.152;19.432;2023-02-12T06:19:00;103433.80;;;-0.08;74.11
66742;BME280;53654;54.152;19.432;2023-02-12T06:21:29;103434.04;;;-0.09;74.00
66742;BME280;53654;54.152;19.432;2023-02-12T06:23:58;103441.45;;;-0.13;73.94
66742;BME280;53654;54.152;19.432;2023-02-12T06:26:26;103451.30;;;-0.17;73.87
66742;BME280;53654;54.152;19.432;2023-02-12T06:28:54;103455.35;;;-0.18;74.06
66742;BME280;53654;54.152;19.432;2023-02-12T06:31:31;103457.13;;;-0.17;74.21
66742;BME280;53654;54.152;19.432;2023-02-12T06:34:03;103459.90;;;-0.16;74.19
66742;BME280;53654;54.152;19.432;2023-02-12T06:36:31;103460.20;;;-0.15;74.18
66742;BME280;53654;54.152;19.432;2023-02-12T06:39:01;103458.89;;;-0.14;74.15
66742;BME280;53654;54.152;19.432;2023-02-12T06:41:32;103456.13;;;-0.14;74.15
66742;BME280;53654;54.152;19.432;2023-02-12T06:44:00;103454.98;;;-0.13;74.09
66742;BME280;53654;54.152;19.432;2023-02-12T06:46:28;103462.27;;;-0.10;74.28
66742;BME280;53654;54.152;19.432;2023-02-12T06:48:58;103459.19;;;-0.06;74.43
66742;BME280;53654;54.152;19.432;2023-02-12T06:51:28;103456.92;;;0.00;74.85
66742;BME280;53654;54.152;19.432;2023-02-12T06:53:56;103462.30;;;0.07;74.96
66742;BME280;53654;54.152;19.432;2023-02-12T06:56:25;103470.24;;;0.12;74.72
66742;BME280;53654;54.152;19.432;2023-02-12T06:58:56;103477.94;;;0.16;74.56
66742;BME280;53654;54.152;19.432;2023-02-12T07:01:27;103484.52;;;0.19;74.42
66742;BME280;53654;54.152;19.432;2023-02-12T07:04:01;103485.56;;;0.24;74.49
66742;BME280;53654;54.152;19.432;2023-02-12T07:06:32;103490.69;;;0.30;74.42
66742;BME280;53654;54.152;19.432;2023-02-12T07:09:01;103489.57;;;0.36;74.40
66742;BME280;53654;54.152;19.432;2023-02-12T07:11:32;103496.08;;;0.40;74.43
66742;BME280;53654;54.152;19.432;2023-02-12T07:14:05;103494.52;;;0.47;74.85
66742;BME280;53654;54.152;19.432;2023-02-12T07:16:34;103497.98;;;0.56;74.69
66742;BME280;53654;54.152;19.432;2023-02-12T07:19:02;103497.16;;;0.65;74.69
66742;BME280;53654;54.152;19.432;2023-02-12T07:21:30;103499.67;;;0.74;74.54
66742;BME280;53654;54.152;19.432;2023-02-12T07:23:59;103496.51;;;0.82;74.47
66742;BME280;53654;54.152;19.432;2023-02-12T07:26:27;103497.53;;;0.88;74.19
66742;BME280;53654;54.152;19.432;2023-02-12T07:28:56;103494.89;;;0.94;74.35
66742;BME280;53654;54.152;19.432;2023-02-12T07:31:25;103486.71;;;1.01;74.35
66742;BME280;53654;54.152;19.432;2023-02-12T07:33:55;103489.11;;;1.10;74.32
66742;BME280;53654;54.152;19.432;2023-02-12T07:36:27;103490.59;;;1.18;74.29
66742;BME280;53654;54.152;19.432;2023-02-12T07:38:56;103494.88;;;1.25;74.21
66742;BME280;53654;54.152;19.432;2023-02-12T07:41:30;103495.88;;;1.34;74.18
66742;BME280;53654;54.152;19.432;2023-02-12T07:44:01;103496.30;;;1.42;74.13
66742;BME280;53654;54.152;19.432;2023-02-12T07:46:33;103501.56;;;1.50;74.11
66742;BME280;53654;54.152;19.432;2023-02-12T07:49:04;103501.13;;;1.58;73.95
66742;BME280;53654;54.152;19.432;2023-02-12T07:51:33;103498.15;;;1.66;73.54
66742;BME280;53654;54.152;19.432;2023-02-12T07:54:02;103491.14;;;1.73;73.41
66742;BME280;53654;54.152;19.432;2023-02-12T07:56:33;103490.80;;;1.80;73.02
66742;BME280;53654;54.152;19.432;2023-02-12T07:59:05;103488.58;;;1.88;72.94
66742;BME280;53654;54.152;19.432;2023-02-12T08:01:53;103492.66;;;1.94;72.47
66742;BME280;53654;54.152;19.432;2023-02-12T08:04:24;103490.52;;;1.98;72.40
66742;BME280;53654;54.152;19.432;2023-02-12T08:06:54;103490.20;;;2.04;71.85
66742;BME280;53654;54.152;19.432;2023-02-12T08:09:25;103491.77;;;2.06;71.92
66742;BME280;53654;54.152;19.432;2023-02-12T08:11:54;103491.60;;;2.09;71.55
66742;BME280;53654;54.152;19.432;2023-02-12T08:14:22;103485.27;;;2.11;71.72
66742;BME280;53654;54.152;19.432;2023-02-12T08:16:51;103478.64;;;2.15;71.74
66742;BME280;53654;54.152;19.432;2023-02-12T08:19:19;103475.95;;;2.19;71.74
66742;BME280;53654;54.152;19.432;2023-02-12T08:21:54;103476.64;;;2.21;71.56
66742;BME280;53654;54.152;19.432;2023-02-12T08:24:23;103472.50;;;2.21;71.61
66742;BME280;53654;54.152;19.432;2023-02-12T08:26:52;103477.20;;;2.25;71.56
66742;BME280;53654;54.152;19.432;2023-02-12T08:29:23;103475.23;;;2.34;71.74
66742;BME280;53654;54.152;19.432;2023-02-12T08:32:00;103477.55;;;2.42;71.59
66742;BME280;53654;54.152;19.432;2023-02-12T08:34:31;103480.98;;;2.45;71.50
66742;BME280;53654;54.152;19.432;2023-02-12T08:37:00;103492.88;;;2.50;71.47
66742;BME280;53654;54.152;19.432;2023-02-12T08:39:29;103498.26;;;2.53;71.44
66742;BME280;53654;54.152;19.432;2023-02-12T08:41:58;103501.42;;;2.56;71.61
66742;BME280;53654;54.152;19.432;2023-02-12T08:44:27;103508.23;;;2.57;71.42
66742;BME280;53654;54.152;19.432;2023-02-12T08:46:56;103507.01;;;2.62;71.60
66742;BME280;53654;54.152;19.432;2023-02-12T08:49:27;103498.59;;;2.65;71.23
66742;BME280;53654;54.152;19.432;2023-02-12T08:51:57;103495.91;;;2.69;71.14
66742;BME280;53654;54.152;19.432;2023-02-12T08:54:27;103496.59;;;2.71;71.26
66742;BME280;53654;54.152;19.432;2023-02-12T08:56:57;103501.38;;;2.73;71.25
66742;BME280;53654;54.152;19.432;2023-02-12T08:59:26;103504.05;;;2.75;71.12
66742;BME280;53654;54.152;19.432;2023-02-12T09:01:54;103500.41;;;2.74;71.24
66742;BME280;53654;54.152;19.432;2023-02-12T09:04:25;103491.86;;;2.73;71.30
66742;BME280;53654;54.152;19.432;2023-02-12T09:06:54;103494.33;;;2.74;71.47
66742;BME280;53654;54.152;19.432;2023-02-12T09:09:22;103498.19;;;2.79;71.57
66742;BME280;53654;54.152;19.432;2023-02-12T09:11:51;103500.61;;;2.85;71.64
66742;BME280;53654;54.152;19.432;2023-02-12T09:14:19;103498.58;;;2.90;71.53
66742;BME280;53654;54.152;19.432;2023-02-12T09:16:52;103497.95;;;2.94;71.48
66742;BME280;53654;54.152;19.432;2023-02-12T09:19:21;103493.27;;;2.97;71.44
66742;BME280;53654;54.152;19.432;2023-02-12T09:21:53;103492.44;;;2.97;71.54
66742;BME280;53654;54.152;19.432;2023-02-12T09:24:24;103495.17;;;2.97;71.59
66742;BME280;53654;54.152;19.432;2023-02-12T09:26:55;103498.33;;;3.00;71.70
66742;BME280;53654;54.152;19.432;2023-02-12T09:29:24;103500.02;;;3.05;71.83
66742;BME280;53654;54.152;19.432;2023-02-12T09:31:52;103498.92;;;3.09;72.10
66742;BME280;53654;54.152;19.432;2023-02-12T09:34:20;103500.81;;;3.16;71.87
66742;BME280;53654;54.152;19.432;2023-02-12T09:36:48;103499.80;;;3.22;71.74
66742;BME280;53654;54.152;19.432;2023-02-12T09:39:16;103500.19;;;3.28;72.08
66742;BME280;53654;54.152;19.432;2023-02-12T09:44:53;103495.91;;;3.47;72.07
66742;BME280;53654;54.152;19.432;2023-02-12T09:50:45;103490.62;;;3.53;71.50
66742;BME280;53654;54.152;19.432;2023-02-12T09:53:17;103487.64;;;3.55;71.30
66742;BME280;53654;54.152;19.432;2023-02-12T09:55:45;103488.99;;;3.58;71.22
66742;BME280;53654;54.152;19.432;2023-02-12T09:58:27;103488.13;;;3.64;71.34
66742;BME280;53654;54.152;19.432;2023-02-12T10:00:57;103487.88;;;3.68;71.36
66742;BME280;53654;54.152;19.432;2023-02-12T10:03:29;103485.61;;;3.70;70.86
66742;BME280;53654;54.152;19.432;2023-02-12T10:06:04;103476.42;;;3.72;70.91
66742;BME280;53654;54.152;19.432;2023-02-12T10:14:24;103465.73;;;3.73;71.33
66742;BME280;53654;54.152;19.432;2023-02-12T10:25:34;103457.24;;;3.75;71.54
66742;BME280;53654;54.152;19.432;2023-02-12T10:28:16;103457.26;;;3.77;71.59
66742;BME280;53654;54.152;19.432;2023-02-12T10:31:01;103457.50;;;3.82;71.39
66742;BME280;53654;54.152;19.432;2023-02-12T10:33:37;103453.25;;;3.85;71.31
66742;BME280;53654;54.152;19.432;2023-02-12T10:36:23;103452.59;;;3.91;71.37
66742;BME280;53654;54.152;19.432;2023-02-12T10:39:11;103449.12;;;3.91;71.12
66742;BME280;53654;54.152;19.432;2023-02-12T10:41:48;103452.64;;;3.95;71.00
66742;BME280;53654;54.152;19.432;2023-02-12T10:44:20;103447.13;;;4.01;70.69
66742;BME280;53654;54.152;19.432;2023-02-12T10:46:48;103453.26;;;4.13;70.35
66742;BME280;53654;54.152;19.432;2023-02-12T10:49:18;103453.28;;;4.26;70.04
66742;BME280;53654;54.152;19.432;2023-02-12T10:52:10;103450.16;;;4.34;69.83
66742;BME280;53654;54.152;19.432;2023-02-12T10:54:45;103448.60;;;4.39;69.65
66742;BME280;53654;54.152;19.432;2023-02-12T10:57:19;103437.76;;;4.43;69.38
66742;BME280;53654;54.152;19.432;2023-02-12T10:59:50;103437.10;;;4.49;69.64
66742;BME280;53654;54.152;19.432;2023-02-12T11:04:50;103433.04;;;4.68;68.66
66742;BME280;53654;54.152;19.432;2023-02-12T11:07:20;103437.98;;;4.76;68.37
66742;BME280;53654;54.152;19.432;2023-02-12T11:09:50;103437.77;;;4.81;68.13
66742;BME280;53654;54.152;19.432;2023-02-12T11:12:39;103440.48;;;4.90;68.01
66742;BME280;53654;54.152;19.432;2023-02-12T11:15:13;103438.29;;;4.97;67.93
66742;BME280;53654;54.152;19.432;2023-02-12T11:17:44;103436.46;;;5.04;67.15
66742;BME280;53654;54.152;19.432;2023-02-12T11:22:58;103421.20;;;5.15;66.49
66742;BME280;53654;54.152;19.432;2023-02-12T11:25:34;103420.23;;;5.20;66.77
66742;BME280;53654;54.152;19.432;2023-02-12T11:28:18;103412.06;;;5.25;66.53
66742;BME280;53654;54.152;19.432;2023-02-12T11:30:52;103412.75;;;5.28;66.04
66742;BME280;53654;54.152;19.432;2023-02-12T11:36:01;103407.81;;;5.38;66.10
66742;BME280;53654;54.152;19.432;2023-02-12T11:38:38;103411.83;;;5.42;65.63
66742;BME280;53654;54.152;19.432;2023-02-12T11:41:25;103405.85;;;5.47;65.11
66742;BME280;53654;54.152;19.432;2023-02-12T11:43:55;103397.14;;;5.53;65.29
66742;BME280;53654;54.152;19.432;2023-02-12T11:46:25;103391.52;;;5.61;64.91
66742;BME280;53654;54.152;19.432;2023-02-12T11:48:55;103384.06;;;5.64;64.22
66742;BME280;53654;54.152;19.432;2023-02-12T11:51:27;103385.38;;;5.66;63.70
66742;BME280;53654;54.152;19.432;2023-02-12T11:54:02;103373.86;;;5.67;63.60
66742;BME280;53654;54.152;19.432;2023-02-12T11:56:42;103366.60;;;5.64;63.45
66742;BME280;53654;54.152;19.432;2023-02-12T11:59:24;103367.37;;;5.62;63.95
66742;BME280;53654;54.152;19.432;2023-02-12T12:01:56;103359.98;;;5.60;64.14
66742;BME280;53654;54.152;19.432;2023-02-12T12:04:28;103354.67;;;5.61;64.16
66742;BME280;53654;54.152;19.432;2023-02-12T12:07:06;103353.20;;;5.63;64.40
66742;BME280;53654;54.152;19.432;2023-02-12T12:09:47;103350.69;;;5.61;64.34
66742;BME280;53654;54.152;19.432;2023-02-12T12:14:57;103356.02;;;5.64;64.72
66742;BME280;53654;54.152;19.432;2023-02-12T12:23:54;103361.63;;;5.62;64.67
66742;BME280;53654;54.152;19.432;2023-02-12T12:26:27;103361.26;;;5.65;65.09
66742;BME280;53654;54.152;19.432;2023-02-12T12:29:19;103358.69;;;5.68;65.16
66742;BME280;53654;54.152;19.432;2023-02-12T12:31:55;103354.52;;;5.72;64.99
66742;BME280;53654;54.152;19.432;2023-02-12T12:34:26;103354.20;;;5.78;64.94
66742;BME280;53654;54.152;19.432;2023-02-12T12:43:12;103349.80;;;5.81;65.55
66742;BME280;53654;54.152;19.432;2023-02-12T12:46:06;103346.32;;;5.80;65.48
66742;BME280;53654;54.152;19.432;2023-02-12T12:56:48;103331.72;;;5.79;66.28
66742;BME280;53654;54.152;19.432;2023-02-12T13:10:56;103354.30;;;5.93;66.75
66742;BME280;53654;54.152;19.432;2023-02-12T13:13:35;103349.08;;;5.96;66.56
66742;BME280;53654;54.152;19.432;2023-02-12T13:24:44;103343.91;;;6.00;67.64
66742;BME280;53654;54.152;19.432;2023-02-12T13:27:22;103337.02;;;6.04;67.62
66742;BME280;53654;54.152;19.432;2023-02-12T13:30:04;103323.66;;;6.07;67.73
66742;BME280;53654;54.152;19.432;2023-02-12T13:32:40;103321.48;;;6.08;68.04
66742;BME280;53654;54.152;19.432;2023-02-12T13:35:17;103322.29;;;6.07;68.25
66742;BME280;53654;54.152;19.432;2023-02-12T13:37:48;103330.21;;;6.03;68.16
66742;BME280;53654;54.152;19.432;2023-02-12T13:40:24;103331.10;;;5.93;67.82
66742;BME280;53654;54.152;19.432;2023-02-12T13:45:50;103342.83;;;5.76;68.34
66742;BME280;53654;54.152;19.432;2023-02-12T13:51:20;103347.77;;;5.52;68.67
66742;BME280;53654;54.152;19.432;2023-02-12T14:02:00;103327.06;;;5.09;69.97
66742;BME280;53654;54.152;19.432;2023-02-12T14:07:20;103328.53;;;4.99;70.65
66742;BME280;53654;54.152;19.432;2023-02-12T14:15:03;103322.79;;;4.89;71.38
66742;BME280;53654;54.152;19.432;2023-02-12T14:20:21;103333.89;;;4.85;71.51
66742;BME280;53654;54.152;19.432;2023-02-12T14:25:25;103343.55;;;4.85;71.90
66742;BME280;53654;54.152;19.432;2023-02-12T14:28:09;103338.26;;;4.83;72.19
66742;BME280;53654;54.152;19.432;2023-02-12T14:30:41;103330.04;;;4.79;72.44
66742;BME280;53654;54.152;19.432;2023-02-12T14:33:18;103322.13;;;4.76;72.77
66742;BME280;53654;54.152;19.432;2023-02-12T14:35:48;103322.89;;;4.74;72.98
66742;BME280;53654;54.152;19.432;2023-02-12T14:41:21;103329.92;;;4.71;73.55
66742;BME280;53654;54.152;19.432;2023-02-12T14:47:00;103337.00;;;4.67;74.14
66742;BME280;53654;54.152;19.432;2023-02-12T14:49:44;103341.77;;;4.69;74.47
66742;BME280;53654;54.152;19.432;2023-02-12T14:52:17;103345.61;;;4.72;74.54
66742;BME280;53654;54.152;19.432;2023-02-12T14:54:49;103344.64;;;4.74;74.53
66742;BME280;53654;54.152;19.432;2023-02-12T14:57:25;103342.05;;;4.77;74.60
66742;BME280;53654;54.152;19.432;2023-02-12T14:59:57;103343.80;;;4.77;74.70
66742;BME280;53654;54.152;19.432;2023-02-12T15:02:32;103340.63;;;4.79;74.95
66742;BME280;53654;54.152;19.432;2023-02-12T15:05:15;103341.91;;;4.80;75.15
66742;BME280;53654;54.152;19.432;2023-02-12T15:07:52;103351.58;;;4.80;75.42
66742;BME280;53654;54.152;19.432;2023-02-12T15:10:36;103349.25;;;4.79;75.50
66742;BME280;53654;54.152;19.432;2023-02-12T15:13:26;103348.95;;;4.77;75.71
66742;BME280;53654;54.152;19.432;2023-02-12T15:16:03;103359.66;;;4.77;75.82
66742;BME280;53654;54.152;19.432;2023-02-12T15:21:24;103356.95;;;4.74;76.43
66742;BME280;53654;54.152;19.432;2023-02-12T15:24:03;103351.80;;;4.72;76.59
66742;BME280;53654;54.152;19.432;2023-02-12T15:26:36;103349.54;;;4.72;76.78
66742;BME280;53654;54.152;19.432;2023-02-12T15:29:20;103359.20;;;4.74;76.79
66742;BME280;53654;54.152;19.432;2023-02-12T15:32:35;103346.09;;;4.75;76.93
66742;BME280;53654;54.152;19.432;2023-02-12T15:34:47;103327.71;;;4.74;77.10
66742;BME280;53654;54.152;19.432;2023-02-12T15:37:30;103328.70;;;4.79;77.18
66742;BME280;53654;54.152;19.432;2023-02-12T15:40:00;103314.67;;;4.82;77.19
66742;BME280;53654;54.152;19.432;2023-02-12T15:42:33;103301.74;;;4.86;77.07
66742;BME280;53654;54.152;19.432;2023-02-12T15:47:46;103290.31;;;4.93;76.96
66742;BME280;53654;54.152;19.432;2023-02-12T15:50:22;103283.77;;;4.93;77.16
66742;BME280;53654;54.152;19.432;2023-02-12T15:52:51;103287.17;;;4.95;77.12